Time;durP1;ratioP1;P1;durP2;ratioP2;P2;SDS_P1;SDS_P2;PMS_P1;PMS_P2;Temp;Humidity;BMP_temperature;BMP_pressure;BME280_temperature;BME280_humidity;BME280_pressure;Samples;Min_cycle;Max_cycle;Signal;HPM_P1;HPM_P2
2023/03/06 00:01:25;;;;;;;;;;;;;;;-0.99;86.55;92767.88;5051107;28;19961;-38
2023/03/06 00:03:50;;;;;;;;;;;;;;;-1.08;86.92;92762.69;5051084;28;19933;-38
2023/03/06 00:06:16;;;;;;;;;;;;;;;-1.17;87.87;92776.50;5051309;28;19933;-38
2023/03/06 00:08:41;;;;;;;;;;;;;;;-1.17;87.33;92771.06;5051161;28;20008;-38
2023/03/06 00:11:06;;;;;;;;;;;;;;;-1.13;88.40;92771.56;5050823;28;20049;-38
2023/03/06 00:13:33;;;;;;;;;;;;;;;-1.10;87.61;92776.75;5050797;28;19950;-38
2023/03/06 00:16:02;;;;;;;;;;;;;;;-1.25;88.17;92776.22;5051189;28;19938;-38
2023/03/06 00:18:27;;;;;;;;;;;;;;;-1.28;88.79;92776.47;5047378;28;19929;-38
2023/03/06 00:20:52;;;;;;;;;;;;;;;-1.20;88.34;92774.75;5031087;28;19938;-38
2023/03/06 00:23:17;;;;;;;;;;;;;;;-0.96;87.41;92775.03;5030687;28;20536;-38
2023/03/06 00:25:43;;;;;;;;;;;;;;;-0.98;86.07;92782.91;5031031;28;20033;-38
2023/03/06 00:28:08;;;;;;;;;;;;;;;-1.03;87.65;92780.94;5030580;28;20408;-38
2023/03/06 00:30:34;;;;;;;;;;;;;;;-1.00;87.77;92788.09;5030755;28;19961;-38
2023/03/06 00:32:59;;;;;;;;;;;;;;;-0.99;85.80;92784.13;5034875;28;20069;-38
2023/03/06 00:35:24;;;;;;;;;;;;;;;-0.91;85.50;92785.88;5050653;28;19948;-38
2023/03/06 00:37:49;;;;;;;;;;;;;;;-0.82;86.42;92782.19;5050597;28;19934;-38
2023/03/06 00:40:16;;;;;;;;;;;;;;;-0.96;85.29;92786.63;5043973;28;19951;-38
2023/03/06 00:42:41;;;;;;;;;;;;;;;-0.76;85.37;92780.97;5030289;28;20379;-38
2023/03/06 00:45:07;;;;;;;;;;;;;;;-0.96;84.85;92780.47;5029785;28;19991;-38
2023/03/06 00:47:32;;;;;;;;;;;;;;;-0.94;84.94;92772.59;5030118;28;20455;-38
2023/03/06 00:49:57;;;;;;;;;;;;;;;-0.79;85.22;92778.50;5030037;28;20016;-38
2023/03/06 00:52:23;;;;;;;;;;;;;;;-0.99;86.58;92773.31;5030128;28;19940;-38
2023/03/06 00:54:48;;;;;;;;;;;;;;;-0.99;85.44;92770.59;5030319;28;19935;-38
2023/03/06 00:57:13;;;;;;;;;;;;;;;-0.91;84.39;92772.31;5045240;28;19955;-38
2023/03/06 00:59:39;;;;;;;;;;;;;;;-1.02;84.96;92774.31;5049669;28;19977;-38
2023/03/06 01:02:04;;;;;;;;;;;;;;;-1.08;85.38;92770.81;5050180;28;20044;-38
2023/03/06 01:04:29;;;;;;;;;;;;;;;-1.04;86.41;92774.78;5049703;28;20437;-38
2023/03/06 01:06:55;;;;;;;;;;;;;;;-1.00;85.46;92772.59;5048500;28;19945;-38
2023/03/06 01:09:20;;;;;;;;;;;;;;;-0.96;84.92;92775.78;5049834;28;19934;-38
2023/03/06 01:11:45;;;;;;;;;;;;;;;-0.92;84.01;92760.03;5065390;28;20406;-38
2023/03/06 01:14:11;;;;;;;;;;;;;;;-0.93;83.71;92763.94;5049609;28;20448;-38
2023/03/06 01:16:36;;;;;;;;;;;;;;;-0.89;83.77;92772.56;5050001;28;19941;-38
2023/03/06 01:19:02;;;;;;;;;;;;;;;-1.08;83.85;92770.81;5049825;28;19934;-38
2023/03/06 01:21:27;;;;;;;;;;;;;;;-1.17;84.95;92768.38;5042457;28;20531;-38
2023/03/06 01:23:52;;;;;;;;;;;;;;;-1.01;84.10;92762.97;5029585;28;20399;-38
2023/03/06 01:26:18;;;;;;;;;;;;;;;-1.13;83.83;92763.44;5029794;28;19942;-38
2023/03/06 01:28:43;;;;;;;;;;;;;;;-1.28;85.33;92760.97;5029743;28;20335;-38
2023/03/06 01:31:09;;;;;;;;;;;;;;;-1.18;84.54;92748.66;5029345;28;20321;-38
2023/03/06 01:33:34;;;;;;;;;;;;;;;-1.27;85.50;92750.84;5038508;28;19941;-38
2023/03/06 01:36:02;;;;;;;;;;;;;;;-1.22;84.89;92748.16;5049690;28;19937;-38
2023/03/06 01:38:27;;;;;;;;;;;;;;;-1.15;84.27;92749.66;5049568;28;19938;-38
2023/03/06 01:40:52;;;;;;;;;;;;;;;-1.21;84.21;92751.63;5049513;28;20049;-38
2023/03/06 01:43:20;;;;;;;;;;;;;;;-1.09;83.64;92753.84;5049097;28;20361;-38
2023/03/06 01:45:48;;;;;;;;;;;;;;;-1.05;83.36;92746.22;5049452;28;19985;-38
2023/03/06 01:48:14;;;;;;;;;;;;;;;-0.83;80.97;92750.91;5049014;28;20692;-38
2023/03/06 01:50:40;;;;;;;;;;;;;;;-1.01;81.63;92757.53;5064422;28;19961;-38
2023/03/06 01:53:06;;;;;;;;;;;;;;;-1.09;82.25;92758.53;5064903;28;19974;-38
2023/03/06 01:55:31;;;;;;;;;;;;;;;-1.07;81.99;92764.94;5047841;28;19934;-38
2023/03/06 01:57:58;;;;;;;;;;;;;;;-1.08;81.55;92755.31;5029380;28;19932;-38
2023/03/06 02:00:24;;;;;;;;;;;;;;;-1.12;81.76;92762.94;5028865;28;20499;-38
2023/03/06 02:02:50;;;;;;;;;;;;;;;-1.04;81.95;92763.94;5029082;28;20615;-38
2023/03/06 02:05:16;;;;;;;;;;;;;;;-1.06;82.13;92771.09;5029186;28;19930;-38
2023/03/06 02:07:41;;;;;;;;;;;;;;;-1.11;81.32;92763.69;5029095;28;20304;-38
2023/03/06 02:10:06;;;;;;;;;;;;;;;-1.02;80.88;92760.75;5029108;28;19989;-38
2023/03/06 02:12:32;;;;;;;;;;;;;;;-0.96;79.58;92764.94;5028742;28;19932;-38
2023/03/06 02:14:57;;;;;;;;;;;;;;;-0.90;79.81;92760.28;5044587;28;19945;-38
2023/03/06 02:17:22;;;;;;;;;;;;;;;-1.03;80.00;92759.25;5029176;28;20372;-38
2023/03/06 02:20:06;;;;;;;;;;;;;;;-1.30;82.43;92770.81;5029113;28;20387;-38
2023/03/06 02:22:55;;;;;;;;;;;;;;;-1.23;82.99;92762.94;5029127;28;19981;-38
2023/03/06 02:25:38;;;;;;;;;;;;;;;-1.16;81.58;92767.13;5025663;28;19932;-38
2023/03/06 02:28:04;;;;;;;;;;;;;;;-1.25;81.23;92764.63;5029087;28;19943;-38
2023/03/06 02:30:30;;;;;;;;;;;;;;;-1.21;80.30;92765.16;5028890;28;19958;-38
2023/03/06 02:32:55;;;;;;;;;;;;;;;-1.15;78.98;92763.91;5032326;28;19950;-38
2023/03/06 02:35:26;;;;;;;;;;;;;;;-1.04;78.35;92760.50;5048864;28;19943;-38
2023/03/06 02:37:51;;;;;;;;;;;;;;;-1.01;77.89;92759.50;5031319;28;20396;-38
2023/03/06 02:40:16;;;;;;;;;;;;;;;-1.01;78.37;92762.97;5028569;28;20033;-38
2023/03/06 02:42:46;;;;;;;;;;;;;;;-0.95;78.00;92763.72;5044037;28;20007;-38
2023/03/06 02:45:11;;;;;;;;;;;;;;;-0.91;78.04;92768.91;5028856;28;19935;-38
2023/03/06 02:47:37;;;;;;;;;;;;;;;-0.81;77.64;92770.13;5043906;28;20035;-38
2023/03/06 02:50:02;;;;;;;;;;;;;;;-0.72;76.86;92766.44;5028608;28;19995;-38
2023/03/06 02:52:27;;;;;;;;;;;;;;;-0.69;76.93;92768.88;5028579;28;19942;-38
2023/03/06 02:54:52;;;;;;;;;;;;;;;-0.67;77.20;92761.00;5028458;28;19931;-38
2023/03/06 02:57:18;;;;;;;;;;;;;;;-0.66;76.83;92764.44;5044315;28;20375;-38
2023/03/06 02:59:43;;;;;;;;;;;;;;;-0.71;76.94;92768.63;5048411;28;19968;-38
2023/03/06 03:02:08;;;;;;;;;;;;;;;-0.66;76.53;92767.91;5048268;28;19937;-38
2023/03/06 03:04:34;;;;;;;;;;;;;;;-0.66;76.12;92772.59;5048549;28;20077;-38
2023/03/06 03:06:59;;;;;;;;;;;;;;;-0.47;75.16;92774.31;5048823;28;19939;-38
2023/03/06 03:09:24;;;;;;;;;;;;;;;-0.49;74.55;92774.06;5051828;28;19965;-38
2023/03/06 03:11:49;;;;;;;;;;;;;;;-0.50;75.29;92771.84;5051866;28;19983;-38
2023/03/06 03:14:15;;;;;;;;;;;;;;;-0.40;74.03;92773.81;5052200;28;19930;-38
2023/03/06 03:16:40;;;;;;;;;;;;;;;-0.47;75.16;92760.00;5052103;28;20606;-38
2023/03/06 03:19:06;;;;;;;;;;;;;;;-0.48;75.72;92780.97;5043560;28;20434;-38
2023/03/06 03:21:31;;;;;;;;;;;;;;;-0.49;75.45;92776.78;5031863;28;20031;-38
2023/03/06 03:23:56;;;;;;;;;;;;;;;-0.50;74.66;92778.03;5032153;28;19938;-38
2023/03/06 03:26:21;;;;;;;;;;;;;;;-0.44;74.33;92781.47;5031959;28;20318;-38
2023/03/06 03:28:47;;;;;;;;;;;;;;;-0.45;74.71;92781.94;5032066;28;19933;-38
2023/03/06 03:31:12;;;;;;;;;;;;;;;-0.71;75.94;92782.19;5031366;28;19966;-38
2023/03/06 03:33:38;;;;;;;;;;;;;;;-0.88;76.30;92782.19;5041285;28;19942;-38
2023/03/06 03:36:04;;;;;;;;;;;;;;;-0.91;76.18;92779.75;5051531;28;19931;-38
2023/03/06 03:38:29;;;;;;;;;;;;;;;-0.83;76.06;92783.44;5051772;28;19943;-38
2023/03/06 03:40:54;;;;;;;;;;;;;;;-0.78;76.58;92783.41;5051734;28;20475;-38
2023/03/06 03:43:20;;;;;;;;;;;;;;;-0.83;76.60;92775.31;5051737;28;19932;-38
2023/03/06 03:45:45;;;;;;;;;;;;;;;-0.89;76.54;92779.97;5051691;28;19933;-38
2023/03/06 03:48:10;;;;;;;;;;;;;;;-0.86;77.15;92789.81;5051235;28;19932;-38
2023/03/06 03:50:35;;;;;;;;;;;;;;;-0.98;76.78;92782.91;5051471;28;19992;-38
2023/03/06 03:53:01;;;;;;;;;;;;;;;-1.03;77.17;92783.66;5051526;28;20028;-38
2023/03/06 03:55:26;;;;;;;;;;;;;;;-0.87;77.03;92782.94;5050822;28;19930;-38
2023/03/06 03:57:51;;;;;;;;;;;;;;;-0.90;77.07;92781.94;5031545;28;19930;-38
2023/03/06 04:00:17;;;;;;;;;;;;;;;-1.11;78.25;92774.53;5030871;28;20347;-38
2023/03/06 04:02:43;;;;;;;;;;;;;;;-1.09;79.77;92780.19;5031114;28;19938;-38
2023/03/06 04:05:08;;;;;;;;;;;;;;;-1.23;80.06;92779.19;5031346;28;19982;-38
2023/03/06 04:07:34;;;;;;;;;;;;;;;-1.13;80.38;92782.41;5031354;28;19940;-38
2023/03/06 04:09:59;;;;;;;;;;;;;;;-1.10;78.82;92789.53;5030882;28;19958;-38
2023/03/06 04:12:24;;;;;;;;;;;;;;;-0.94;78.19;92791.53;5031136;28;19958;-38
2023/03/06 04:14:49;;;;;;;;;;;;;;;-0.72;76.95;92783.44;5030916;28;20659;-38
2023/03/06 04:17:15;;;;;;;;;;;;;;;-0.82;77.07;92793.03;5030879;28;19928;-38
2023/03/06 04:19:40;;;;;;;;;;;;;;;-0.92;76.97;92791.78;5030637;28;19944;-38
2023/03/06 04:22:05;;;;;;;;;;;;;;;-0.95;78.86;92790.06;5030974;28;19930;-38
2023/03/06 04:24:30;;;;;;;;;;;;;;;-1.06;79.93;92788.06;5030893;28;20623;-38
2023/03/06 04:26:56;;;;;;;;;;;;;;;-1.16;79.71;92796.91;5030358;28;19956;-38
2023/03/06 04:29:21;;;;;;;;;;;;;;;-0.99;79.85;92792.28;5030445;28;19973;-38
2023/03/06 04:31:46;;;;;;;;;;;;;;;-1.02;79.42;92799.41;5030507;28;20451;-38
2023/03/06 04:34:11;;;;;;;;;;;;;;;-1.09;79.57;92788.31;5045106;28;20004;-38
2023/03/06 04:36:37;;;;;;;;;;;;;;;-1.29;80.89;92789.25;5050571;28;19937;-38
2023/03/06 04:39:02;;;;;;;;;;;;;;;-1.46;81.73;92799.31;5050663;28;19937;-38
2023/03/06 04:41:27;;;;;;;;;;;;;;;-1.48;83.20;92792.91;5050238;28;20503;-38
2023/03/06 04:43:53;;;;;;;;;;;;;;;-1.44;81.92;92802.25;5050567;28;20329;-38
2023/03/06 04:46:18;;;;;;;;;;;;;;;-1.25;80.63;92799.84;5050414;28;20395;-38
2023/03/06 04:48:43;;;;;;;;;;;;;;;-1.30;80.31;92803.28;5050266;28;19936;-38
2023/03/06 04:51:12;;;;;;;;;;;;;;;-1.32;81.59;92801.06;5049997;28;20436;-38
2023/03/06 04:53:37;;;;;;;;;;;;;;;-1.56;82.28;92803.47;5050028;28;20106;-38
2023/03/06 04:56:02;;;;;;;;;;;;;;;-1.65;83.05;92809.09;5044658;28;20065;-38
2023/03/06 04:58:28;;;;;;;;;;;;;;;-1.68;83.64;92812.75;5029952;28;20393;-38
2023/03/06 05:00:53;;;;;;;;;;;;;;;-1.81;84.40;92809.72;5029838;28;20065;-38
2023/03/06 05:03:18;;;;;;;;;;;;;;;-1.85;85.53;92809.22;5030252;28;19936;-38
2023/03/06 05:05:43;;;;;;;;;;;;;;;-1.80;84.07;92806.53;5029832;28;20448;-38
2023/03/06 05:08:12;;;;;;;;;;;;;;;-1.86;84.84;92815.84;5030045;28;19934;-38
2023/03/06 05:10:38;;;;;;;;;;;;;;;-1.92;86.05;92817.78;5029837;28;20110;-38
2023/03/06 05:13:04;;;;;;;;;;;;;;;-1.88;84.61;92823.72;5030042;28;20434;-38
2023/03/06 05:15:29;;;;;;;;;;;;;;;-1.81;84.06;92832.13;5029750;28;19978;-38
2023/03/06 05:17:55;;;;;;;;;;;;;;;-1.77;84.97;92826.47;5029961;28;19937;-38
2023/03/06 05:20:20;;;;;;;;;;;;;;;-1.77;84.53;92829.94;5029612;28;19954;-38
2023/03/06 05:22:45;;;;;;;;;;;;;;;-1.85;85.17;92834.31;5029810;28;19934;-38
2023/03/06 05:25:11;;;;;;;;;;;;;;;-1.78;85.47;92842.00;5029891;28;20019;-38
2023/03/06 05:27:36;;;;;;;;;;;;;;;-1.74;86.64;92839.78;5029790;28;20612;-38
2023/03/06 05:30:02;;;;;;;;;;;;;;;-1.54;84.82;92842.31;5029087;28;20550;-38
2023/03/06 05:32:28;;;;;;;;;;;;;;;-1.57;84.81;92848.72;5029415;28;19933;-38
2023/03/06 05:34:53;;;;;;;;;;;;;;;-1.48;85.13;92849.75;5049252;28;19932;-38
2023/03/06 05:37:18;;;;;;;;;;;;;;;-1.34;85.55;92857.66;5049546;28;19992;-38
2023/03/06 05:39:43;;;;;;;;;;;;;;;-1.35;84.49;92858.16;5049609;28;19955;-38
2023/03/06 05:42:09;;;;;;;;;;;;;;;-1.17;84.86;92860.44;5049379;28;20408;-38
2023/03/06 05:44:34;;;;;;;;;;;;;;;-1.05;81.75;92864.66;5049244;28;19938;-38
2023/03/06 05:46:59;;;;;;;;;;;;;;;-0.82;81.86;92869.66;5049119;28;19940;-38
2023/03/06 05:49:25;;;;;;;;;;;;;;;-0.76;79.25;92872.38;5049313;28;19942;-38
2023/03/06 05:51:50;;;;;;;;;;;;;;;-0.54;78.22;92868.97;5049073;28;20394;-38
2023/03/06 05:54:16;;;;;;;;;;;;;;;-0.45;77.42;92872.16;5049367;28;19971;-38
2023/03/06 05:56:41;;;;;;;;;;;;;;;-0.17;78.50;92881.06;5038224;28;19990;-38
2023/03/06 05:59:06;;;;;;;;;;;;;;;-0.04;77.70;92880.56;5028944;28;20067;-38
2023/03/06 06:01:32;;;;;;;;;;;;;;;0.17;78.28;92884.50;5029049;28;19992;-38
2023/03/06 06:03:57;;;;;;;;;;;;;;;0.28;75.74;92883.75;5029473;28;19933;-38
2023/03/06 06:06:22;;;;;;;;;;;;;;;0.51;75.73;92885.16;5029040;28;19929;-38
2023/03/06 06:08:47;;;;;;;;;;;;;;;0.50;73.82;92887.13;5029348;28;19939;-38
2023/03/06 06:11:13;;;;;;;;;;;;;;;0.69;74.55;92884.63;5028912;28;20015;-38
2023/03/06 06:13:38;;;;;;;;;;;;;;;0.67;75.45;92876.97;5028890;28;19936;-38
2023/03/06 06:16:10;;;;;;;;;;;;;;;0.80;74.31;92887.31;5029001;28;19937;-38
2023/03/06 06:18:35;;;;;;;;;;;;;;;0.89;72.62;92884.28;5028934;28;19935;-38
2023/03/06 06:21:05;;;;;;;;;;;;;;;1.72;71.93;92883.84;5028821;28;20372;-38
2023/03/06 06:23:30;;;;;;;;;;;;;;;2.84;66.96;92881.59;5028843;28;19932;-38
2023/03/06 06:25:57;;;;;;;;;;;;;;;3.83;63.80;92885.06;5028947;28;19941;-38
2023/03/06 06:28:22;;;;;;;;;;;;;;;4.44;61.42;92884.81;5028736;28;19936;-38
2023/03/06 06:30:48;;;;;;;;;;;;;;;4.40;59.43;92887.13;5028351;28;19958;-38
2023/03/06 06:33:13;;;;;;;;;;;;;;;4.73;60.11;92896.00;5035335;28;19938;-38
2023/03/06 06:35:38;;;;;;;;;;;;;;;5.37;57.68;92889.78;5048989;28;20407;-38
2023/03/06 06:38:04;;;;;;;;;;;;;;;5.72;55.80;92879.59;5048600;28;19959;-38
2023/03/06 06:40:29;;;;;;;;;;;;;;;5.71;56.20;92883.63;5048485;28;20031;-39
2023/03/06 06:42:54;;;;;;;;;;;;;;;6.04;56.13;92889.09;5050564;28;20030;-38
2023/03/06 06:45:20;;;;;;;;;;;;;;;6.45;55.81;92879.44;5052615;28;19992;-38
2023/03/06 06:47:46;;;;;;;;;;;;;;;6.47;55.05;92880.38;5052514;28;19936;-38
2023/03/06 06:50:12;;;;;;;;;;;;;;;6.71;53.69;92884.78;5067780;28;19953;-38
2023/03/06 06:52:37;;;;;;;;;;;;;;;6.16;54.82;92892.34;5052235;28;19935;-38
2023/03/06 06:55:03;;;;;;;;;;;;;;;6.44;55.27;92897.16;5052562;28;20020;-38
2023/03/06 06:57:28;;;;;;;;;;;;;;;6.36;54.36;92904.59;5035121;28;20602;-38
2023/03/06 06:59:54;;;;;;;;;;;;;;;6.16;54.52;92894.34;5032082;28;19970;-38
2023/03/06 07:02:19;;;;;;;;;;;;;;;5.76;56.04;92899.91;5032481;28;19943;-38
2023/03/06 07:04:44;;;;;;;;;;;;;;;5.92;55.91;92903.59;5032162;28;20444;-38
2023/03/06 07:07:10;;;;;;;;;;;;;;;5.94;55.09;92903.78;5032308;28;19985;-38
2023/03/06 07:09:36;;;;;;;;;;;;;;;6.30;52.87;92895.75;5032020;28;20345;-38
2023/03/06 07:12:01;;;;;;;;;;;;;;;7.94;48.87;92888.34;5032254;28;19942;-38
2023/03/06 07:14:26;;;;;;;;;;;;;;;9.32;45.05;92899.66;5032212;28;19933;-39
2023/03/06 07:16:51;;;;;;;;;;;;;;;10.11;44.58;92896.31;5031867;28;20033;-39
2023/03/06 07:19:17;;;;;;;;;;;;;;;10.75;42.93;92903.84;5032112;28;19932;-39
2023/03/06 07:21:42;;;;;;;;;;;;;;;11.01;42.75;92901.25;5031879;28;20447;-39
2023/03/06 07:24:07;;;;;;;;;;;;;;;12.97;38.39;92892.72;5032072;28;19934;-39
2023/03/06 07:26:33;;;;;;;;;;;;;;;13.71;35.59;92892.00;5031762;28;20480;-39
2023/03/06 07:28:58;;;;;;;;;;;;;;;14.13;34.61;92894.38;5031752;28;20032;-39
2023/03/06 07:31:24;;;;;;;;;;;;;;;14.29;34.94;92893.50;5031771;28;20028;-39
2023/03/06 07:33:50;;;;;;;;;;;;;;;15.40;32.60;92900.47;5042926;28;19995;-39
2023/03/06 07:36:15;;;;;;;;;;;;;;;16.07;32.91;92894.50;5051455;28;19932;-39
2023/03/06 07:38:40;;;;;;;;;;;;;;;16.08;29.10;92899.47;5051633;28;19939;-38
2023/03/06 07:41:11;;;;;;;;;;;;;;;15.75;32.15;92891.06;5051707;28;19937;-39
2023/03/06 07:43:37;;;;;;;;;;;;;;;16.71;29.78;92893.06;5066335;28;20320;-39
2023/03/06 07:46:02;;;;;;;;;;;;;;;17.28;28.39;92894.47;5051277;28;19938;-39
2023/03/06 07:48:27;;;;;;;;;;;;;;;18.26;27.80;92899.56;5050952;28;19998;-39
2023/03/06 07:50:53;;;;;;;;;;;;;;;18.90;24.52;92894.09;5051087;28;19953;-39
2023/03/06 07:53:21;;;;;;;;;;;;;;;18.33;26.96;92900.63;5051013;28;19933;-39
2023/03/06 07:55:46;;;;;;;;;;;;;;;18.92;25.39;92900.53;5047690;28;20391;-39
2023/03/06 07:58:12;;;;;;;;;;;;;;;18.89;25.64;92896.16;5031333;28;19941;-39
2023/03/06 08:00:37;;;;;;;;;;;;;;;18.83;24.72;92895.09;5030807;28;20427;-39
2023/03/06 08:03:02;;;;;;;;;;;;;;;18.69;25.14;92891.53;5030983;28;19937;-39
2023/03/06 08:05:28;;;;;;;;;;;;;;;17.71;28.24;92892.91;5030947;28;19987;-39
2023/03/06 08:07:53;;;;;;;;;;;;;;;19.40;27.65;92899.63;5030887;28;19940;-39
2023/03/06 08:10:18;;;;;;;;;;;;;;;19.93;23.91;92899.50;5031106;28;19951;-39
2023/03/06 08:12:43;;;;;;;;;;;;;;;19.93;23.25;92905.13;5030742;28;20001;-39
2023/03/06 08:15:10;;;;;;;;;;;;;;;20.25;24.94;92896.28;5031129;28;19985;-39
2023/03/06 08:17:35;;;;;;;;;;;;;;;19.86;25.50;92906.88;5030859;28;19941;-39
2023/03/06 08:20:00;;;;;;;;;;;;;;;20.88;24.06;92900.03;5030540;28;19933;-39
2023/03/06 08:22:26;;;;;;;;;;;;;;;21.54;24.03;92902.44;5030782;28;19932;-39
2023/03/06 08:24:55;;;;;;;;;;;;;;;20.48;23.43;92900.91;5030500;28;19963;-39
2023/03/06 08:27:20;;;;;;;;;;;;;;;20.06;24.47;92905.13;5030718;28;19943;-39
2023/03/06 08:29:45;;;;;;;;;;;;;;;19.77;26.17;92913.44;5030418;28;20344;-39
2023/03/06 08:32:11;;;;;;;;;;;;;;;19.44;25.08;92910.31;5030467;28;19932;-39
2023/03/06 08:34:38;;;;;;;;;;;;;;;19.50;24.74;92910.63;5047954;28;19939;-39
2023/03/06 08:37:04;;;;;;;;;;;;;;;18.39;24.84;92914.94;5050267;28;19955;-39
2023/03/06 08:39:29;;;;;;;;;;;;;;;17.92;27.33;92911.56;5050244;28;19934;-39
2023/03/06 08:41:54;;;;;;;;;;;;;;;16.83;28.76;92907.03;5050181;28;19934;-39
2023/03/06 08:44:19;;;;;;;;;;;;;;;16.61;30.24;92901.50;5050362;28;19934;-38
2023/03/06 08:46:45;;;;;;;;;;;;;;;16.66;30.09;92903.22;5049851;28;20406;-38
2023/03/06 08:49:11;;;;;;;;;;;;;;;17.77;29.03;92907.22;5049886;28;19932;-38
2023/03/06 08:51:36;;;;;;;;;;;;;;;18.59;28.13;92908.47;5065376;28;20058;-38
2023/03/06 08:54:01;;;;;;;;;;;;;;;17.58;27.60;92910.28;5049791;28;20028;-38
2023/03/06 08:56:28;;;;;;;;;;;;;;;17.10;28.59;92913.63;5038664;28;19982;-39
2023/03/06 08:58:54;;;;;;;;;;;;;;;18.50;28.53;92917.75;5049527;28;19939;-39
2023/03/06 09:01:19;;;;;;;;;;;;;;;20.07;26.13;92906.59;5065117;28;19944;-39
2023/03/06 09:03:44;;;;;;;;;;;;;;;19.05;27.60;92907.50;5049976;28;20014;-39
2023/03/06 09:06:10;;;;;;;;;;;;;;;19.36;26.04;92904.28;5049310;28;20428;-39
2023/03/06 09:08:35;;;;;;;;;;;;;;;20.39;24.83;92910.28;5049905;28;20424;-39
2023/03/06 09:11:00;;;;;;;;;;;;;;;21.35;25.65;92902.97;5049844;28;19957;-39
2023/03/06 09:13:26;;;;;;;;;;;;;;;21.91;24.61;92901.97;5048180;28;20400;-39
2023/03/06 09:15:51;;;;;;;;;;;;;;;22.22;22.83;92895.56;5029691;28;19943;-39
2023/03/06 09:18:16;;;;;;;;;;;;;;;22.49;23.37;92904.44;5029886;28;19946;-39
2023/03/06 09:20:41;;;;;;;;;;;;;;;22.30;24.22;92905.06;5029338;28;20426;-39
2023/03/06 09:23:07;;;;;;;;;;;;;;;21.76;22.44;92899.88;5029609;28;19943;-39
2023/03/06 09:25:33;;;;;;;;;;;;;;;21.67;24.52;92895.25;5029396;28;19942;-39
2023/03/06 09:27:58;;;;;;;;;;;;;;;22.48;22.99;92894.53;5029693;28;19934;-39
2023/03/06 09:30:23;;;;;;;;;;;;;;;22.37;23.55;92898.31;5029252;28;20337;-39
2023/03/06 09:32:48;;;;;;;;;;;;;;;20.02;24.92;92907.00;5032309;28;19985;-39
2023/03/06 09:35:14;;;;;;;;;;;;;;;19.73;26.93;92901.31;5049110;28;19946;-38
2023/03/06 09:37:40;;;;;;;;;;;;;;;21.25;26.28;92898.94;5049249;28;20018;-39
2023/03/06 09:40:05;;;;;;;;;;;;;;;22.04;25.35;92898.31;5049101;28;20034;-39
2023/03/06 09:42:32;;;;;;;;;;;;;;;21.87;25.50;92907.41;5049079;28;19933;-39
2023/03/06 09:44:58;;;;;;;;;;;;;;;23.06;23.40;92898.31;5049093;28;19943;-39
2023/03/06 09:47:42;;;;;;;;;;;;;;;22.84;24.20;92900.25;5064601;28;20026;-39
2023/03/06 09:50:28;;;;;;;;;;;;;;;23.07;22.17;92899.75;5048975;28;20006;-39
2023/03/06 09:53:05;;;;;;;;;;;;;;;21.48;23.60;92904.22;5047813;28;20455;-39
2023/03/06 09:55:31;;;;;;;;;;;;;;;22.10;24.37;92912.63;5047724;28;19936;-39
2023/03/06 09:58:05;;;;;;;;;;;;;;;22.36;23.52;92902.50;5044381;28;19983;-39
2023/03/06 10:00:37;;;;;;;;;;;;;;;22.29;23.06;92900.06;5028714;28;20433;-39
2023/03/06 10:03:11;;;;;;;;;;;;;;;22.40;24.61;92899.84;5044447;28;19940;-39
2023/03/06 10:05:39;;;;;;;;;;;;;;;22.25;24.85;92895.00;5028874;28;19931;-39
2023/03/06 10:08:05;;;;;;;;;;;;;;;21.92;23.32;92883.03;5044366;28;19935;-38
2023/03/06 10:10:41;;;;;;;;;;;;;;;22.31;21.49;92888.88;5028536;28;19966;-39
2023/03/06 10:13:15;;;;;;;;;;;;;;;20.71;24.75;92883.78;5044330;28;19954;-39
2023/03/06 10:15:40;;;;;;;;;;;;;;;21.90;25.08;92878.03;5044204;28;19935;-39
2023/03/06 10:18:06;;;;;;;;;;;;;;;21.67;25.12;92879.13;5033278;28;19987;-38
2023/03/06 10:20:36;;;;;;;;;;;;;;;21.02;26.29;92886.69;5033102;28;19941;-39
2023/03/06 10:23:01;;;;;;;;;;;;;;;20.77;25.01;92874.97;5013206;28;19976;-38
2023/03/06 10:25:29;;;;;;;;;;;;;;;21.72;24.05;92871.59;5013187;28;19981;-38
2023/03/06 10:27:57;;;;;;;;;;;;;;;20.90;24.40;92863.66;5060555;28;20394;-39
2023/03/06 10:30:41;;;;;;;;;;;;;;;20.72;26.16;92871.22;5032638;28;20425;-38
2023/03/06 10:33:18;;;;;;;;;;;;;;;20.13;25.85;92864.09;5018413;28;19932;-38
2023/03/06 10:35:52;;;;;;;;;;;;;;;20.59;25.17;92860.78;5033119;28;20331;-38
2023/03/06 10:38:18;;;;;;;;;;;;;;;20.35;25.68;92854.75;5033007;28;19944;-38
2023/03/06 10:41:04;;;;;;;;;;;;;;;20.62;23.22;92856.72;5032749;28;20478;-39
2023/03/06 10:43:29;;;;;;;;;;;;;;;21.24;24.33;92866.63;5032746;28;20412;-38
2023/03/06 10:45:55;;;;;;;;;;;;;;;21.56;24.01;92856.84;5048550;28;19976;-39
2023/03/06 10:48:22;;;;;;;;;;;;;;;21.08;22.75;92856.09;5032879;28;19938;-39
2023/03/06 10:50:47;;;;;;;;;;;;;;;21.28;23.85;92855.56;5032930;28;19951;-39
2023/03/06 10:53:23;;;;;;;;;;;;;;;20.85;24.36;92853.63;5032902;28;20411;-38
2023/03/06 10:55:53;;;;;;;;;;;;;;;21.09;24.09;92846.31;5059413;28;19951;-38
2023/03/06 10:58:21;;;;;;;;;;;;;;;21.68;24.08;92851.72;5032953;28;19940;-38
2023/03/06 11:00:46;;;;;;;;;;;;;;;22.10;25.02;92847.97;5047913;28;20416;-38
2023/03/06 11:03:16;;;;;;;;;;;;;;;21.06;24.34;92838.44;5047916;28;19936;-38
2023/03/06 11:05:54;;;;;;;;;;;;;;;21.57;21.36;92836.53;5047888;28;20399;-38
2023/03/06 11:08:21;;;;;;;;;;;;;;;21.39;23.95;92851.88;5044621;28;19969;-38
2023/03/06 11:10:53;;;;;;;;;;;;;;;21.27;24.53;92849.22;5012456;28;19955;-39
2023/03/06 11:13:22;;;;;;;;;;;;;;;21.24;24.20;92844.16;5012621;28;20065;-38
2023/03/06 11:15:58;;;;;;;;;;;;;;;21.38;23.70;92842.72;5044680;28;20355;-38
2023/03/06 11:18:33;;;;;;;;;;;;;;;21.80;22.43;92836.13;5015295;28;20092;-38
2023/03/06 11:20:59;;;;;;;;;;;;;;;21.07;23.14;92837.09;5047080;28;20413;-39
2023/03/06 11:23:43;;;;;;;;;;;;;;;21.54;22.34;92831.47;5032244;28;19933;-38
2023/03/06 11:26:14;;;;;;;;;;;;;;;20.77;23.40;92827.25;5047462;28;20014;-38
2023/03/06 11:28:59;;;;;;;;;;;;;;;20.20;23.71;92826.63;5031082;28;20056;-38
2023/03/06 11:31:25;;;;;;;;;;;;;;;21.22;23.51;92818.81;5031192;28;19955;-38
2023/03/06 11:33:52;;;;;;;;;;;;;;;20.97;23.28;92823.28;5058719;28;19941;-38
2023/03/06 11:36:22;;;;;;;;;;;;;;;21.16;23.72;92810.81;5066873;28;19946;-38
2023/03/06 11:38:48;;;;;;;;;;;;;;;20.08;24.83;92806.41;5066868;28;19933;-38
2023/03/06 11:41:32;;;;;;;;;;;;;;;20.05;24.72;92808.41;5051566;28;19939;-38
2023/03/06 11:44:00;;;;;;;;;;;;;;;19.71;24.83;92791.97;5051344;28;20417;-38
2023/03/06 11:46:27;;;;;;;;;;;;;;;19.45;25.95;92796.94;5051030;28;20008;-38
2023/03/06 11:49:16;;;;;;;;;;;;;;;19.17;25.68;92790.59;5066881;28;19934;-38
2023/03/06 11:51:49;;;;;;;;;;;;;;;19.87;24.16;92785.09;5050490;28;19958;-38
2023/03/06 11:54:14;;;;;;;;;;;;;;;19.44;25.97;92782.25;5066545;28;19935;-38
2023/03/06 11:56:52;;;;;;;;;;;;;;;19.71;25.87;92770.25;5055869;28;19958;-38
2023/03/06 11:59:27;;;;;;;;;;;;;;;20.30;25.59;92766.19;5030919;28;19964;-39
2023/03/06 12:01:59;;;;;;;;;;;;;;;19.77;24.10;92767.78;5031236;28;19972;-38
2023/03/06 12:04:24;;;;;;;;;;;;;;;19.36;25.48;92770.63;5030846;28;20005;-38
2023/03/06 12:07:22;;;;;;;;;;;;;;;19.09;24.87;92770.59;5031237;28;20024;-38
2023/03/06 12:09:47;;;;;;;;;;;;;;;17.84;28.88;92765.88;5018481;28;19932;-38
2023/03/06 12:12:13;;;;;;;;;;;;;;;18.44;27.84;92769.25;5030726;28;20399;-39
2023/03/06 12:14:41;;;;;;;;;;;;;;;18.44;27.67;92765.69;5031051;28;19956;-38
2023/03/06 12:17:09;;;;;;;;;;;;;;;18.42;27.12;92757.22;5030750;28;19934;-38
2023/03/06 12:19:54;;;;;;;;;;;;;;;18.14;27.41;92754.34;5030629;28;20458;-38
2023/03/06 12:22:32;;;;;;;;;;;;;;;17.67;26.49;92747.47;5046272;28;19967;-38
2023/03/06 12:25:16;;;;;;;;;;;;;;;17.66;26.96;92750.88;5030926;28;19938;-38
2023/03/06 12:27:51;;;;;;;;;;;;;;;16.85;30.14;92762.19;5045987;28;20038;-38
2023/03/06 12:30:35;;;;;;;;;;;;;;;17.44;25.60;92755.91;5030826;28;20338;-38
2023/03/06 12:33:06;;;;;;;;;;;;;;;17.25;27.20;92754.13;5034664;28;19944;-38
2023/03/06 12:35:31;;;;;;;;;;;;;;;17.36;29.68;92742.22;5050455;28;19932;-38
2023/03/06 12:37:56;;;;;;;;;;;;;;;17.72;28.61;92743.59;5050380;28;19936;-38
2023/03/06 12:40:25;;;;;;;;;;;;;;;17.31;27.61;92743.31;5049406;28;19933;-38
2023/03/06 12:42:50;;;;;;;;;;;;;;;17.33;28.38;92746.22;5050478;28;20514;-38
2023/03/06 12:45:35;;;;;;;;;;;;;;;17.00;28.01;92750.53;5050444;28;19933;-38
2023/03/06 12:48:01;;;;;;;;;;;;;;;16.83;27.42;92745.34;5065409;28;19996;-38